sensor_id;sensor_type;location;lat;lon;timestamp;pressure;altitude;pressure_sealevel;temperature;humidity
82152;BME280;71721;47.904;-122.188;2024-02-26T00:10:41;99316.33;;;-6.48;75.04
82152;BME280;71721;47.904;-122.188;2024-02-26T00:13:06;99315.99;;;-6.73;71.76
82152;BME280;71721;47.904;-122.188;2024-02-26T00:15:31;99331.56;;;-8.54;69.16
82152;BME280;71721;47.904;-122.188;2024-02-26T00:18:02;99325.37;;;-5.63;68.31
82152;BME280;71721;47.904;-122.188;2024-02-26T00:20:22;99320.62;;;-5.43;66.27
82152;BME280;71721;47.904;-122.188;2024-02-26T00:22:48;99320.92;;;-5.95;65.94
82152;BME280;71721;47.904;-122.188;2024-02-26T00:25:14;99321.35;;;-5.99;64.61
82152;BME280;71721;47.904;-122.188;2024-02-26T00:27:40;99328.54;;;-6.36;65.06
82152;BME280;71721;47.904;-122.188;2024-02-26T00:30:07;99324.73;;;-6.48;66.63
82152;BME280;71721;47.904;-122.188;2024-02-26T00:32:31;99332.76;;;-6.67;66.39
82152;BME280;71721;47.904;-122.188;2024-02-26T00:34:57;99339.45;;;-6.39;64.29
82152;BME280;71721;47.904;-122.188;2024-02-26T00:37:23;99351.28;;;-6.46;64.12
82152;BME280;71721;47.904;-122.188;2024-02-26T00:39:49;99342.09;;;-6.33;63.73
82152;BME280;71721;47.904;-122.188;2024-02-26T00:42:14;99334.64;;;-6.63;63.42
82152;BME280;71721;47.904;-122.188;2024-02-26T00:44:40;99333.83;;;-6.38;62.06
82152;BME280;71721;47.904;-122.188;2024-02-26T00:47:06;99324.05;;;-6.58;59.95
82152;BME280;71721;47.904;-122.188;2024-02-26T00:49:32;99323.07;;;-6.58;61.52
82152;BME280;71721;47.904;-122.188;2024-02-26T00:51:58;99335.90;;;-6.78;59.87
82152;BME280;71721;47.904;-122.188;2024-02-26T00:54:23;99331.91;;;-6.49;59.29
82152;BME280;71721;47.904;-122.188;2024-02-26T00:56:49;99348.43;;;-6.94;59.41
82152;BME280;71721;47.904;-122.188;2024-02-26T00:59:15;99335.11;;;-7.23;60.87
82152;BME280;71721;47.904;-122.188;2024-02-26T01:01:43;99352.91;;;-7.51;61.50
82152;BME280;71721;47.904;-122.188;2024-02-26T01:04:12;99335.68;;;-7.40;61.48
82152;BME280;71721;47.904;-122.188;2024-02-26T01:06:33;99339.67;;;-7.64;60.69
82152;BME280;71721;47.904;-122.188;2024-02-26T01:08:59;99346.53;;;-6.85;58.67
82152;BME280;71721;47.904;-122.188;2024-02-26T01:11:29;99338.98;;;-7.45;61.09
82152;BME280;71721;47.904;-122.188;2024-02-26T01:13:50;99348.40;;;-7.61;58.81
82152;BME280;71721;47.904;-122.188;2024-02-26T01:16:15;99349.90;;;-7.53;59.81
82152;BME280;71721;47.904;-122.188;2024-02-26T01:18:41;99351.77;;;-7.41;61.67
82152;BME280;71721;47.904;-122.188;2024-02-26T01:21:07;99346.33;;;-7.84;59.94
82152;BME280;71721;47.904;-122.188;2024-02-26T01:23:33;99340.30;;;-6.63;57.52
82152;BME280;71721;47.904;-122.188;2024-02-26T01:26:00;99348.51;;;-7.21;59.18
82152;BME280;71721;47.904;-122.188;2024-02-26T01:28:24;99353.40;;;-7.32;59.14
82152;BME280;71721;47.904;-122.188;2024-02-26T01:30:50;99360.35;;;-7.39;58.43
82152;BME280;71721;47.904;-122.188;2024-02-26T01:33:16;99348.07;;;-7.52;58.50
82152;BME280;71721;47.904;-122.188;2024-02-26T01:35:41;99355.79;;;-7.33;60.26
82152;BME280;71721;47.904;-122.188;2024-02-26T01:38:07;99353.37;;;-7.31;59.84
82152;BME280;71721;47.904;-122.188;2024-02-26T01:40:33;99359.20;;;-6.79;58.07
82152;BME280;71721;47.904;-122.188;2024-02-26T01:43:00;99357.23;;;-6.91;56.81
82152;BME280;71721;47.904;-122.188;2024-02-26T01:45:25;99372.07;;;-7.56;59.22
82152;BME280;71721;47.904;-122.188;2024-02-26T01:47:51;99371.37;;;-7.43;60.11
82152;BME280;71721;47.904;-122.188;2024-02-26T01:50:16;99350.42;;;-7.29;57.42
82152;BME280;71721;47.904;-122.188;2024-02-26T01:52:42;99390.91;;;-7.46;56.02
82152;BME280;71721;47.904;-122.188;2024-02-26T01:55:08;99366.87;;;-7.08;57.18
82152;BME280;71721;47.904;-122.188;2024-02-26T01:57:33;99362.15;;;-7.31;57.41
82152;BME280;71721;47.904;-122.188;2024-02-26T01:59:59;99359.67;;;-7.16;57.50
82152;BME280;71721;47.904;-122.188;2024-02-26T02:02:25;99356.18;;;-7.59;54.90
82152;BME280;71721;47.904;-122.188;2024-02-26T02:04:51;99381.83;;;-7.30;57.69
82152;BME280;71721;47.904;-122.188;2024-02-26T02:07:17;99367.11;;;-7.20;57.08
82152;BME280;71721;47.904;-122.188;2024-02-26T02:09:43;99370.09;;;-7.32;58.52
82152;BME280;71721;47.904;-122.188;2024-02-26T02:12:09;99372.67;;;-7.59;58.84
82152;BME280;71721;47.904;-122.188;2024-02-26T02:14:34;99363.63;;;-6.95;57.00
82152;BME280;71721;47.904;-122.188;2024-02-26T02:17:00;99365.96;;;-6.88;55.43
82152;BME280;71721;47.904;-122.188;2024-02-26T02:19:26;99366.30;;;-6.84;55.95
82152;BME280;71721;47.904;-122.188;2024-02-26T02:21:52;99371.37;;;-7.59;57.95
82152;BME280;71721;47.904;-122.188;2024-02-26T02:24:17;99364.39;;;-7.79;57.31
82152;BME280;71721;47.904;-122.188;2024-02-26T02:26:43;99380.36;;;-7.54;55.57
82152;BME280;71721;47.904;-122.188;2024-02-26T02:29:08;99377.84;;;-6.54;55.24
82152;BME280;71721;47.904;-122.188;2024-02-26T02:31:34;99380.10;;;-7.22;53.52
82152;BME280;71721;47.904;-122.188;2024-02-26T02:34:00;99387.79;;;-6.21;52.84
82152;BME280;71721;47.904;-122.188;2024-02-26T02:36:25;99397.88;;;-6.53;54.19
82152;BME280;71721;47.904;-122.188;2024-02-26T02:38:51;99387.25;;;-6.60;56.05
82152;BME280;71721;47.904;-122.188;2024-02-26T02:41:17;99397.72;;;-7.02;54.87
82152;BME280;71721;47.904;-122.188;2024-02-26T02:43:42;99409.83;;;-7.44;57.53
82152;BME280;71721;47.904;-122.188;2024-02-26T02:46:08;99412.09;;;-7.64;56.33
82152;BME280;71721;47.904;-122.188;2024-02-26T02:48:32;99411.84;;;-7.64;58.89
82152;BME280;71721;47.904;-122.188;2024-02-26T02:50:58;99406.12;;;-8.25;59.06
82152;BME280;71721;47.904;-122.188;2024-02-26T02:53:23;99422.34;;;-7.72;56.98
82152;BME280;71721;47.904;-122.188;2024-02-26T02:55:54;99398.21;;;-8.61;58.68
82152;BME280;71721;47.904;-122.188;2024-02-26T02:58:14;99408.76;;;-8.24;57.14
82152;BME280;71721;47.904;-122.188;2024-02-26T03:00:40;99400.92;;;-8.45;57.13
82152;BME280;71721;47.904;-122.188;2024-02-26T03:03:06;99416.32;;;-7.86;55.61
82152;BME280;71721;47.904;-122.188;2024-02-26T03:05:33;99421.73;;;-8.11;54.54
82152;BME280;71721;47.904;-122.188;2024-02-26T03:07:56;99408.76;;;-8.10;52.56
82152;BME280;71721;47.904;-122.188;2024-02-26T03:10:21;99397.90;;;-7.17;49.77
82152;BME280;71721;47.904;-122.188;2024-02-26T03:12:47;99398.00;;;-7.49;51.26
82152;BME280;71721;47.904;-122.188;2024-02-26T03:15:13;99394.51;;;-6.91;49.78
82152;BME280;71721;47.904;-122.188;2024-02-26T03:17:38;99386.82;;;-7.29;50.25
82152;BME280;71721;47.904;-122.188;2024-02-26T03:20:04;99391.54;;;-7.04;48.71
82152;BME280;71721;47.904;-122.188;2024-02-26T03:22:29;99397.68;;;-6.69;47.09
82152;BME280;71721;47.904;-122.188;2024-02-26T03:24:55;99399.24;;;-6.01;43.88
82152;BME280;71721;47.904;-122.188;2024-02-26T03:27:21;99408.35;;;-7.49;48.92
82152;BME280;71721;47.904;-122.188;2024-02-26T03:29:46;99413.01;;;-7.30;48.19
82152;BME280;71721;47.904;-122.188;2024-02-26T03:32:12;99402.69;;;-6.65;46.56
82152;BME280;71721;47.904;-122.188;2024-02-26T03:34:39;99416.66;;;-7.44;48.17
82152;BME280;71721;47.904;-122.188;2024-02-26T03:37:04;99418.93;;;-7.01;47.09
82152;BME280;71721;47.904;-122.188;2024-02-26T03:39:30;99416.20;;;-7.56;49.05
82152;BME280;71721;47.904;-122.188;2024-02-26T03:41:56;99411.59;;;-7.02;46.21
82152;BME280;71721;47.904;-122.188;2024-02-26T03:44:21;99418.59;;;-6.98;47.06
82152;BME280;71721;47.904;-122.188;2024-02-26T03:46:47;99435.16;;;-6.54;46.46
82152;BME280;71721;47.904;-122.188;2024-02-26T03:49:13;99441.39;;;-6.74;48.88
82152;BME280;71721;47.904;-122.188;2024-02-26T03:51:39;99438.28;;;-7.11;50.18
82152;BME280;71721;47.904;-122.188;2024-02-26T03:54:05;99451.03;;;-7.22;49.96
82152;BME280;71721;47.904;-122.188;2024-02-26T03:56:31;99448.66;;;-7.69;51.29
82152;BME280;71721;47.904;-122.188;2024-02-26T03:58:57;99456.24;;;-7.89;51.89
82152;BME280;71721;47.904;-122.188;2024-02-26T04:01:22;99458.70;;;-7.54;49.43
82152;BME280;71721;47.904;-122.188;2024-02-26T04:03:48;99459.71;;;-7.67;50.04
82152;BME280;71721;47.904;-122.188;2024-02-26T04:06:14;99467.63;;;-6.92;49.14
82152;BME280;71721;47.904;-122.188;2024-02-26T04:08:41;99455.61;;;-7.41;50.55
82152;BME280;71721;47.904;-122.188;2024-02-26T04:11:05;99455.42;;;-8.07;49.18
82152;BME280;71721;47.904;-122.188;2024-02-26T04:13:31;99453.94;;;-8.09;49.78
82152;BME280;71721;47.904;-122.188;2024-02-26T04:15:57;99447.02;;;-8.50;49.02
82152;BME280;71721;47.904;-122.188;2024-02-26T04:18:23;99445.86;;;-8.08;46.79
82152;BME280;71721;47.904;-122.188;2024-02-26T04:20:49;99451.86;;;-7.82;45.73
82152;BME280;71721;47.904;-122.188;2024-02-26T04:23:14;99456.57;;;-7.87;47.14
82152;BME280;71721;47.904;-122.188;2024-02-26T04:25:40;99455.84;;;-7.59;44.77
82152;BME280;71721;47.904;-122.188;2024-02-26T04:28:06;99467.51;;;-7.76;43.75
82152;BME280;71721;47.904;-122.188;2024-02-26T04:30:31;99468.61;;;-7.81;44.61
82152;BME280;71721;47.904;-122.188;2024-02-26T04:32:58;99458.80;;;-7.54;41.96
82152;BME280;71721;47.904;-122.188;2024-02-26T04:35:23;99464.95;;;-6.47;38.97
82152;BME280;71721;47.904;-122.188;2024-02-26T04:37:49;99467.17;;;-5.32;38.10
82152;BME280;71721;47.904;-122.188;2024-02-26T04:40:15;99470.34;;;-5.55;36.55
82152;BME280;71721;47.904;-122.188;2024-02-26T04:42:40;99472.30;;;-4.92;34.89
82152;BME280;71721;47.904;-122.188;2024-02-26T04:45:07;99472.42;;;-5.84;34.60
82152;BME280;71721;47.904;-122.188;2024-02-26T04:47:32;99473.37;;;-3.72;33.54
82152;BME280;71721;47.904;-122.188;2024-02-26T04:49:58;99475.58;;;-2.69;31.80
82152;BME280;71721;47.904;-122.188;2024-02-26T04:52:23;99479.01;;;-1.99;30.35
82152;BME280;71721;47.904;-122.188;2024-02-26T04:54:49;99496.94;;;-3.89;31.30
82152;BME280;71721;47.904;-122.188;2024-02-26T04:57:21;99495.76;;;-2.29;30.50
82152;BME280;71721;47.904;-122.188;2024-02-26T04:59:46;99490.39;;;-0.57;29.82
82152;BME280;71721;47.904;-122.188;2024-02-26T05:02:06;99502.41;;;-0.22;29.73
82152;BME280;71721;47.904;-122.188;2024-02-26T05:04:35;99502.43;;;0.27;30.26
82152;BME280;71721;47.904;-122.188;2024-02-26T05:06:58;99509.17;;;0.48;28.48
82152;BME280;71721;47.904;-122.188;2024-02-26T05:09:26;99521.23;;;0.15;28.64
82152;BME280;71721;47.904;-122.188;2024-02-26T05:11:49;99515.08;;;-2.20;27.82
82152;BME280;71721;47.904;-122.188;2024-02-26T05:14:15;99523.94;;;-3.40;29.36
82152;BME280;71721;47.904;-122.188;2024-02-26T05:16:41;99523.10;;;-0.38;28.52
82152;BME280;71721;47.904;-122.188;2024-02-26T05:19:05;99516.44;;;-1.84;31.12
82152;BME280;71721;47.904;-122.188;2024-02-26T05:21:31;99526.05;;;-2.79;31.56
82152;BME280;71721;47.904;-122.188;2024-02-26T05:23:57;99527.11;;;-3.76;34.26
82152;BME280;71721;47.904;-122.188;2024-02-26T05:26:23;99520.71;;;-2.40;32.40
82152;BME280;71721;47.904;-122.188;2024-02-26T05:28:54;99525.25;;;-0.29;31.00
82152;BME280;71721;47.904;-122.188;2024-02-26T05:31:16;99528.79;;;0.57;30.62
82152;BME280;71721;47.904;-122.188;2024-02-26T05:33:40;99538.74;;;-0.97;31.16
82152;BME280;71721;47.904;-122.188;2024-02-26T05:36:06;99535.03;;;0.36;29.69
82152;BME280;71721;47.904;-122.188;2024-02-26T05:38:31;99527.26;;;-0.65;30.66
82152;BME280;71721;47.904;-122.188;2024-02-26T05:41:03;99522.91;;;-0.34;31.62
82152;BME280;71721;47.904;-122.188;2024-02-26T05:43:30;99534.30;;;0.43;31.01
82152;BME280;71721;47.904;-122.188;2024-02-26T05:45:53;99527.63;;;1.04;30.15
82152;BME280;71721;47.904;-122.188;2024-02-26T05:48:14;99522.71;;;0.08;31.15
82152;BME280;71721;47.904;-122.188;2024-02-26T05:50:40;99527.45;;;-0.23;30.54
82152;BME280;71721;47.904;-122.188;2024-02-26T05:53:06;99537.68;;;-4.42;33.90
82152;BME280;71721;47.904;-122.188;2024-02-26T05:55:31;99543.74;;;-1.67;32.18
82152;BME280;71721;47.904;-122.188;2024-02-26T05:57:57;99540.05;;;-1.01;29.98
82152;BME280;71721;47.904;-122.188;2024-02-26T06:00:22;99542.68;;;-0.27;29.67
82152;BME280;71721;47.904;-122.188;2024-02-26T06:02:48;99541.46;;;-1.02;27.94
82152;BME280;71721;47.904;-122.188;2024-02-26T06:05:14;99536.39;;;-1.21;30.12
82152;BME280;71721;47.904;-122.188;2024-02-26T06:07:39;99543.42;;;0.74;29.52
82152;BME280;71721;47.904;-122.188;2024-02-26T06:10:06;99527.54;;;1.00;28.85
82152;BME280;71721;47.904;-122.188;2024-02-26T06:12:31;99533.05;;;-1.26;29.31
82152;BME280;71721;47.904;-122.188;2024-02-26T06:14:57;99526.75;;;-1.27;27.65
82152;BME280;71721;47.904;-122.188;2024-02-26T06:17:23;99518.85;;;-1.12;27.65
82152;BME280;71721;47.904;-122.188;2024-02-26T06:19:48;99517.35;;;-2.22;28.11
82152;BME280;71721;47.904;-122.188;2024-02-26T06:22:14;99543.27;;;-6.68;31.54
82152;BME280;71721;47.904;-122.188;2024-02-26T06:24:40;99542.73;;;-6.22;33.70
82152;BME280;71721;47.904;-122.188;2024-02-26T06:27:06;99536.02;;;-6.79;35.41
82152;BME280;71721;47.904;-122.188;2024-02-26T06:29:31;99539.30;;;-4.07;32.45
82152;BME280;71721;47.904;-122.188;2024-02-26T06:31:57;99529.43;;;-3.68;29.83
82152;BME280;71721;47.904;-122.188;2024-02-26T06:34:23;99529.93;;;-2.67;29.45
82152;BME280;71721;47.904;-122.188;2024-02-26T06:36:48;99525.67;;;-2.39;28.75
82152;BME280;71721;47.904;-122.188;2024-02-26T06:39:14;99511.46;;;-3.65;31.36
82152;BME280;71721;47.904;-122.188;2024-02-26T06:41:40;99508.15;;;-2.81;29.75
82152;BME280;71721;47.904;-122.188;2024-02-26T06:44:06;99518.62;;;-3.18;28.50
82152;BME280;71721;47.904;-122.188;2024-02-26T06:46:31;99513.15;;;-6.08;32.13
82152;BME280;71721;47.904;-122.188;2024-02-26T06:48:57;99522.37;;;-5.88;31.17
82152;BME280;71721;47.904;-122.188;2024-02-26T06:51:23;99528.04;;;-5.39;29.52
82152;BME280;71721;47.904;-122.188;2024-02-26T06:53:49;99526.78;;;-7.36;32.50
82152;BME280;71721;47.904;-122.188;2024-02-26T06:56:15;99520.88;;;-5.12;31.25
82152;BME280;71721;47.904;-122.188;2024-02-26T06:58:40;99518.56;;;-3.75;29.01
82152;BME280;71721;47.904;-122.188;2024-02-26T07:01:12;99511.38;;;-1.79;27.59
82152;BME280;71721;47.904;-122.188;2024-02-26T07:03:32;99511.76;;;-0.76;27.62
82152;BME280;71721;47.904;-122.188;2024-02-26T07:05:58;99521.68;;;-4.94;31.07
82152;BME280;71721;47.904;-122.188;2024-02-26T07:08:23;99514.90;;;-3.43;30.25
82152;BME280;71721;47.904;-122.188;2024-02-26T07:10:49;99522.23;;;-7.05;35.83
82152;BME280;71721;47.904;-122.188;2024-02-26T07:13:15;99521.37;;;-8.37;38.18
82152;BME280;71721;47.904;-122.188;2024-02-26T07:15:41;99521.35;;;-5.51;34.65
82152;BME280;71721;47.904;-122.188;2024-02-26T07:18:07;99512.98;;;-5.17;34.27
82152;BME280;71721;47.904;-122.188;2024-02-26T07:20:32;99512.06;;;-2.59;31.99
82152;BME280;71721;47.904;-122.188;2024-02-26T07:23:03;99517.33;;;-1.22;29.71
82152;BME280;71721;47.904;-122.188;2024-02-26T07:25:24;99520.00;;;-2.36;30.23
82152;BME280;71721;47.904;-122.188;2024-02-26T07:27:50;99515.15;;;-1.14;28.12
82152;BME280;71721;47.904;-122.188;2024-02-26T07:30:15;99513.39;;;0.41;28.13
82152;BME280;71721;47.904;-122.188;2024-02-26T07:32:42;99511.56;;;0.92;27.35
82152;BME280;71721;47.904;-122.188;2024-02-26T07:35:07;99520.21;;;0.35;28.26
82152;BME280;71721;47.904;-122.188;2024-02-26T07:37:33;99528.46;;;-3.39;30.75
82152;BME280;71721;47.904;-122.188;2024-02-26T07:39:58;99531.23;;;-1.39;30.11
82152;BME280;71721;47.904;-122.188;2024-02-26T07:42:24;99533.31;;;-0.74;30.92
82152;BME280;71721;47.904;-122.188;2024-02-26T07:44:50;99530.82;;;-3.40;34.11
82152;BME280;71721;47.904;-122.188;2024-02-26T07:47:16;99531.90;;;-3.08;35.95
82152;BME280;71721;47.904;-122.188;2024-02-26T07:49:41;99533.49;;;-4.58;38.44
82152;BME280;71721;47.904;-122.188;2024-02-26T07:52:07;99527.63;;;-2.32;36.44
82152;BME280;71721;47.904;-122.188;2024-02-26T07:54:33;99531.64;;;-2.17;36.74
82152;BME280;71721;47.904;-122.188;2024-02-26T07:56:59;99531.22;;;-4.09;38.31
82152;BME280;71721;47.904;-122.188;2024-02-26T07:59:24;99536.96;;;-4.16;39.34
82152;BME280;71721;47.904;-122.188;2024-02-26T08:01:51;99536.28;;;-4.86;40.02
82152;BME280;71721;47.904;-122.188;2024-02-26T08:04:16;99533.03;;;-3.75;39.25
82152;BME280;71721;47.904;-122.188;2024-02-26T08:06:42;99533.11;;;-3.24;39.34
82152;BME280;71721;47.904;-122.188;2024-02-26T08:09:08;99539.11;;;-2.80;39.25
82152;BME280;71721;47.904;-122.188;2024-02-26T08:11:33;99545.78;;;-6.99;45.66
82152;BME280;71721;47.904;-122.188;2024-02-26T08:13:59;99546.61;;;-5.69;44.24
82152;BME280;71721;47.904;-122.188;2024-02-26T08:16:25;99545.28;;;-4.67;42.26
82152;BME280;71721;47.904;-122.188;2024-02-26T08:18:51;99548.48;;;-5.01;42.60
82152;BME280;71721;47.904;-122.188;2024-02-26T08:21:17;99539.84;;;-3.12;40.30
82152;BME280;71721;47.904;-122.188;2024-02-26T08:23:44;99537.70;;;-2.87;40.14
82152;BME280;71721;47.904;-122.188;2024-02-26T08:26:08;99539.83;;;-2.04;38.43
82152;BME280;71721;47.904;-122.188;2024-02-26T08:28:34;99544.64;;;-3.24;39.33
82152;BME280;71721;47.904;-122.188;2024-02-26T08:31:00;99553.43;;;-4.49;42.94
82152;BME280;71721;47.904;-122.188;2024-02-26T08:33:26;99554.02;;;-5.11;42.64
82152;BME280;71721;47.904;-122.188;2024-02-26T08:35:51;99557.28;;;-5.64;43.22
82152;BME280;71721;47.904;-122.188;2024-02-26T08:38:23;99569.52;;;-4.34;42.83
82152;BME280;71721;47.904;-122.188;2024-02-26T08:40:43;99561.73;;;-3.41;41.32
82152;BME280;71721;47.904;-122.188;2024-02-26T08:43:09;99551.83;;;-3.02;40.39
82152;BME280;71721;47.904;-122.188;2024-02-26T08:45:35;99562.86;;;-5.57;43.66
82152;BME280;71721;47.904;-122.188;2024-02-26T08:48:00;99557.38;;;-4.77;42.67
82152;BME280;71721;47.904;-122.188;2024-02-26T08:50:31;99551.08;;;-6.51;45.25
82152;BME280;71721;47.904;-122.188;2024-02-26T08:52:52;99548.50;;;-3.25;41.27
82152;BME280;71721;47.904;-122.188;2024-02-26T08:55:18;99557.41;;;-5.15;43.20
82152;BME280;71721;47.904;-122.188;2024-02-26T08:57:44;99560.22;;;-3.80;41.72
82152;BME280;71721;47.904;-122.188;2024-02-26T09:00:10;99564.64;;;-5.61;43.40
82152;BME280;71721;47.904;-122.188;2024-02-26T09:02:35;99562.09;;;-5.29;43.10
82152;BME280;71721;47.904;-122.188;2024-02-26T09:05:01;99557.50;;;-5.81;43.71
82152;BME280;71721;47.904;-122.188;2024-02-26T09:07:27;99544.29;;;-3.12;40.22
82152;BME280;71721;47.904;-122.188;2024-02-26T09:09:53;99544.80;;;-4.74;42.04
82152;BME280;71721;47.904;-122.188;2024-02-26T09:12:19;99534.87;;;-4.37;40.97
82152;BME280;71721;47.904;-122.188;2024-02-26T09:14:45;99531.30;;;-2.20;39.39
82152;BME280;71721;47.904;-122.188;2024-02-26T09:17:10;99528.87;;;-2.08;38.78
82152;BME280;71721;47.904;-122.188;2024-02-26T09:19:36;99528.58;;;-2.10;38.69
82152;BME280;71721;47.904;-122.188;2024-02-26T09:22:02;99527.01;;;-1.60;38.26
82152;BME280;71721;47.904;-122.188;2024-02-26T09:24:29;99525.86;;;-1.53;37.61
82152;BME280;71721;47.904;-122.188;2024-02-26T09:26:53;99522.67;;;-1.50;37.88
82152;BME280;71721;47.904;-122.188;2024-02-26T09:29:20;99521.55;;;-1.29;37.72
82152;BME280;71721;47.904;-122.188;2024-02-26T09:31:45;99517.46;;;-0.88;37.52
82152;BME280;71721;47.904;-122.188;2024-02-26T09:34:11;99520.75;;;-1.27;37.36
82152;BME280;71721;47.904;-122.188;2024-02-26T09:36:37;99526.75;;;-2.54;38.61
82152;BME280;71721;47.904;-122.188;2024-02-26T09:39:03;99537.60;;;-1.80;37.96
82152;BME280;71721;47.904;-122.188;2024-02-26T09:41:30;99545.58;;;-2.46;38.25
82152;BME280;71721;47.904;-122.188;2024-02-26T09:43:57;99544.46;;;-2.46;38.40
82152;BME280;71721;47.904;-122.188;2024-02-26T09:46:20;99545.75;;;-1.65;37.84
82152;BME280;71721;47.904;-122.188;2024-02-26T09:48:47;99553.44;;;-1.85;37.63
82152;BME280;71721;47.904;-122.188;2024-02-26T09:51:12;99568.66;;;-1.47;37.35
82152;BME280;71721;47.904;-122.188;2024-02-26T09:53:38;99567.68;;;-3.19;39.59
82152;BME280;71721;47.904;-122.188;2024-02-26T09:56:04;99553.48;;;-3.40;39.41
82152;BME280;71721;47.904;-122.188;2024-02-26T09:58:31;99552.44;;;-3.94;39.89
82152;BME280;71721;47.904;-122.188;2024-02-26T10:00:57;99560.25;;;-4.31;39.93
82152;BME280;71721;47.904;-122.188;2024-02-26T10:03:22;99568.83;;;-4.61;41.57
82152;BME280;71721;47.904;-122.188;2024-02-26T10:05:47;99561.79;;;-2.84;39.39
82152;BME280;71721;47.904;-122.188;2024-02-26T10:08:13;99558.91;;;-1.64;37.89
82152;BME280;71721;47.904;-122.188;2024-02-26T10:10:39;99562.90;;;-1.45;37.44
82152;BME280;71721;47.904;-122.188;2024-02-26T10:13:05;99568.61;;;-1.69;37.44
82152;BME280;71721;47.904;-122.188;2024-02-26T10:15:30;99566.55;;;-3.41;39.17
82152;BME280;71721;47.904;-122.188;2024-02-26T10:17:56;99577.78;;;-4.30;40.86
82152;BME280;71721;47.904;-122.188;2024-02-26T10:20:22;99575.90;;;-5.55;42.42
82152;BME280;71721;47.904;-122.188;2024-02-26T10:22:47;99573.25;;;-5.02;42.00
82152;BME280;71721;47.904;-122.188;2024-02-26T10:25:13;99576.36;;;-4.95;42.02
82152;BME280;71721;47.904;-122.188;2024-02-26T10:27:41;99585.64;;;-3.84;40.96
82152;BME280;71721;47.904;-122.188;2024-02-26T10:30:12;99586.02;;;-3.62;40.64
82152;BME280;71721;47.904;-122.188;2024-02-26T10:32:31;99587.55;;;-4.57;41.51
82152;BME280;71721;47.904;-122.188;2024-02-26T10:34:56;99585.84;;;-3.19;40.10
82152;BME280;71721;47.904;-122.188;2024-02-26T10:37:23;99589.18;;;-4.12;40.73
82152;BME280;71721;47.904;-122.188;2024-02-26T10:39:48;99578.90;;;-2.96;39.58
82152;BME280;71721;47.904;-122.188;2024-02-26T10:42:14;99572.11;;;-3.53;40.74
82152;BME280;71721;47.904;-122.188;2024-02-26T10:44:41;99557.46;;;-3.14;39.61
82152;BME280;71721;47.904;-122.188;2024-02-26T10:47:06;99553.13;;;-2.66;38.84
82152;BME280;71721;47.904;-122.188;2024-02-26T10:49:33;99554.80;;;-3.41;39.32
82152;BME280;71721;47.904;-122.188;2024-02-26T10:51:57;99559.02;;;-2.90;39.20
82152;BME280;71721;47.904;-122.188;2024-02-26T10:54:26;99557.66;;;-3.40;39.34
82152;BME280;71721;47.904;-122.188;2024-02-26T10:56:49;99557.39;;;-3.03;39.19
82152;BME280;71721;47.904;-122.188;2024-02-26T10:59:14;99557.83;;;-3.25;39.11
82152;BME280;71721;47.904;-122.188;2024-02-26T11:01:40;99564.04;;;-3.20;39.15
82152;BME280;71721;47.904;-122.188;2024-02-26T11:04:06;99575.79;;;-3.87;40.30
82152;BME280;71721;47.904;-122.188;2024-02-26T11:06:31;99579.97;;;-4.34;41.09
82152;BME280;71721;47.904;-122.188;2024-02-26T11:08:57;99582.51;;;-2.96;40.13
82152;BME280;71721;47.904;-122.188;2024-02-26T11:11:22;99585.06;;;-4.66;41.85
82152;BME280;71721;47.904;-122.188;2024-02-26T11:13:49;99585.74;;;-4.56;41.83
82152;BME280;71721;47.904;-122.188;2024-02-26T11:16:14;99587.37;;;-4.12;41.40
82152;BME280;71721;47.904;-122.188;2024-02-26T11:18:40;99583.63;;;-4.21;41.96
82152;BME280;71721;47.904;-122.188;2024-02-26T11:21:06;99585.27;;;-3.34;40.57
82152;BME280;71721;47.904;-122.188;2024-02-26T11:23:30;99580.64;;;-4.58;40.97
82152;BME280;71721;47.904;-122.188;2024-02-26T11:25:56;99571.10;;;-2.78;40.03
82152;BME280;71721;47.904;-122.188;2024-02-26T11:28:21;99554.25;;;-3.05;40.22
82152;BME280;71721;47.904;-122.188;2024-02-26T11:30:49;99559.22;;;-5.90;43.29
82152;BME280;71721;47.904;-122.188;2024-02-26T11:33:11;99554.79;;;-4.13;41.61
82152;BME280;71721;47.904;-122.188;2024-02-26T11:35:37;99560.58;;;-4.35;41.42
82152;BME280;71721;47.904;-122.188;2024-02-26T11:38:01;99556.89;;;-6.39;43.40
82152;BME280;71721;47.904;-122.188;2024-02-26T11:40:26;99549.02;;;-3.68;40.50
82152;BME280;71721;47.904;-122.188;2024-02-26T11:42:51;99546.59;;;-4.69;40.56
82152;BME280;71721;47.904;-122.188;2024-02-26T11:47:28;99536.61;;;-2.94;39.58
82152;BME280;71721;47.904;-122.188;2024-02-26T11:49:51;99543.77;;;-5.86;40.92
82152;BME280;71721;47.904;-122.188;2024-02-26T11:52:17;99540.93;;;-3.89;39.68
82152;BME280;71721;47.904;-122.188;2024-02-26T11:54:47;99541.24;;;-5.33;41.73
82152;BME280;71721;47.904;-122.188;2024-02-26T11:57:22;99547.35;;;-5.50;42.17
82152;BME280;71721;47.904;-122.188;2024-02-26T11:59:44;99547.03;;;-4.60;41.91
82152;BME280;71721;47.904;-122.188;2024-02-26T12:01:58;99550.17;;;-6.43;43.70
82152;BME280;71721;47.904;-122.188;2024-02-26T12:04:26;99556.68;;;-4.95;41.35
82152;BME280;71721;47.904;-122.188;2024-02-26T12:06:51;99565.06;;;-3.89;40.69
82152;BME280;71721;47.904;-122.188;2024-02-26T12:09:31;99564.54;;;-5.12;42.05
82152;BME280;71721;47.904;-122.188;2024-02-26T12:11:41;99565.08;;;-5.42;42.24
82152;BME280;71721;47.904;-122.188;2024-02-26T12:14:13;99562.96;;;-6.46;43.77
82152;BME280;71721;47.904;-122.188;2024-02-26T12:16:39;99566.79;;;-6.88;44.20
82152;BME280;71721;47.904;-122.188;2024-02-26T12:18:57;99567.19;;;-4.82;41.87
82152;BME280;71721;47.904;-122.188;2024-02-26T12:21:22;99570.76;;;-3.45;40.14
82152;BME280;71721;47.904;-122.188;2024-02-26T12:23:48;99570.93;;;-5.77;42.00
82152;BME280;71721;47.904;-122.188;2024-02-26T12:26:14;99575.53;;;-7.14;44.59
82152;BME280;71721;47.904;-122.188;2024-02-26T12:28:41;99578.05;;;-8.85;47.74
82152;BME280;71721;47.904;-122.188;2024-02-26T12:31:05;99578.66;;;-7.43;45.96
82152;BME280;71721;47.904;-122.188;2024-02-26T12:33:30;99574.59;;;-6.05;44.30